Osorio, Brazil
Current Conditions -  °F | °C
As of 4:00 PM on Thursday 30 Oct 2014 (Local Time) from SBCO Reporting Station
Broken Clouds Broken Clouds  
Wind Chill: 70°   Ceiling: 1100
Heat Index: 70°   Visibility: 6mi
Dew Point: 66°   Wind: 13mph
Humidity: 88%   Direction: 310°NW
Pressure: 29.85"   Gusts: NA
Location:  29.89°S, 50.27°W
Report Text: SBCO 301800Z 31011KT 9999 BKN011 BKN092 21/19 Q1011
Loading
Personal Weather Stations






























Interactive Weather Map
Tropical Storm Tracking
New forecast layout! Learn more

10-Day Weather Forecast

Advertisements
Track Severe Weather on mobile